Decoded Metar for UKBB (KIEV in UKRAINE) (IATA:KBP) | Meteo·Mobile Aviation Weather
aviador You're here:

UKBB Decoded Metar

KIEV in UKRAINE
Report Time2019-09-21 09:11:00
UTC Time2019-09-21 09:32:13
Flight Rules vfr VFR
Wind320° at 12 Gusting to 23 kt
W.Decomp.*RWY 36: 8.5 kt HW 8.5 kt LCW
Visibility9999 m
Phenomena:N/A
Clouds:Scattered 040 Hf
Expected CloudBase > 5,600 ft AGL from Temp-Dew spread
CeilingNone
Temp12°C (ISA -2)
Dew Point-2°C (38% RH)
AAT5.4°C
QNH1022 hPa
Density Alt-102 ft
Elevation390 ft
Report Wrong Elevation
Raw Report
UKBB 210911Z 32006G12MPS 280V360 9999 SCT040 12/M02 Q1022 R88/D
NOSIG=

Extra information for UKBB:More info

Metar Taf Metar & Taf Last 4 Metars F.Rules Stats Wind Profile Meteogram Temp Stats Airport Information Weather charts Add Link Nearby VenuesMetar ALERT Operation Metar Decoded Social comments